sensor_id;sensor_type;location;lat;lon;timestamp;pressure;altitude;pressure_sealevel;temperature;humidity
27425;BME280;15244;49.088;11.886;2023-04-30T00:02:01;96010.47;;;13.42;49.69
27425;BME280;15244;49.088;11.886;2023-04-30T00:07:02;96012.41;;;13.38;49.36
27425;BME280;15244;49.088;11.886;2023-04-30T00:12:08;96024.56;;;13.37;49.73
27425;BME280;15244;49.088;11.886;2023-04-30T00:17:10;96024.53;;;13.40;49.58
27425;BME280;15244;49.088;11.886;2023-04-30T00:22:12;96015.53;;;13.47;49.58
27425;BME280;15244;49.088;11.886;2023-04-30T00:27:14;96011.97;;;13.57;49.60
27425;BME280;15244;49.088;11.886;2023-04-30T00:32:16;96014.69;;;13.68;49.65
27425;BME280;15244;49.088;11.886;2023-04-30T00:37:17;96013.50;;;13.73;49.44
27425;BME280;15244;49.088;11.886;2023-04-30T00:42:19;96016.22;;;13.73;49.29
27425;BME280;15244;49.088;11.886;2023-04-30T00:47:21;96017.41;;;13.68;49.38
27425;BME280;15244;49.088;11.886;2023-04-30T00:52:23;96031.09;;;13.64;49.29
27425;BME280;15244;49.088;11.886;2023-04-30T00:57:25;96037.38;;;13.61;49.45
27425;BME280;15244;49.088;11.886;2023-04-30T01:02:27;96041.31;;;13.60;49.34
27425;BME280;15244;49.088;11.886;2023-04-30T01:07:30;96045.59;;;13.61;49.60
27425;BME280;15244;49.088;11.886;2023-04-30T01:18:15;96064.00;;;13.68;49.45
27425;BME280;15244;49.088;11.886;2023-04-30T01:23:35;96060.06;;;13.62;49.24
27425;BME280;15244;49.088;11.886;2023-04-30T01:28:44;96054.63;;;13.58;49.54
27425;BME280;15244;49.088;11.886;2023-04-30T01:33:47;96065.59;;;13.55;49.63
27425;BME280;15244;49.088;11.886;2023-04-30T01:55:25;96073.03;;;13.26;50.06
27425;BME280;15244;49.088;11.886;2023-04-30T02:00:29;96079.69;;;13.25;50.12
27425;BME280;15244;49.088;11.886;2023-04-30T02:05:31;96082.41;;;13.21;50.02
27425;BME280;15244;49.088;11.886;2023-04-30T02:10:33;96082.03;;;13.22;50.34
27425;BME280;15244;49.088;11.886;2023-04-30T02:15:36;96079.69;;;13.25;50.21
27425;BME280;15244;49.088;11.886;2023-04-30T02:20:37;96084.41;;;13.28;50.57
27425;BME280;15244;49.088;11.886;2023-04-30T02:25:40;96080.50;;;13.32;50.31
27425;BME280;15244;49.088;11.886;2023-04-30T02:30:41;96082.03;;;13.40;50.38
27425;BME280;15244;49.088;11.886;2023-04-30T02:35:43;96092.63;;;13.42;49.63
27425;BME280;15244;49.088;11.886;2023-04-30T02:40:45;96083.22;;;13.43;50.24
27425;BME280;15244;49.088;11.886;2023-04-30T02:45:47;96089.47;;;13.47;49.93
27425;BME280;15244;49.088;11.886;2023-04-30T02:50:49;96094.94;;;13.51;50.06
27425;BME280;15244;49.088;11.886;2023-04-30T02:55:50;96088.28;;;13.55;50.26
27425;BME280;15244;49.088;11.886;2023-04-30T03:00:52;96089.84;;;13.53;50.04
27425;BME280;15244;49.088;11.886;2023-04-30T03:05:55;96094.94;;;13.51;50.00
27425;BME280;15244;49.088;11.886;2023-04-30T03:10:59;96094.94;;;13.51;50.10
27425;BME280;15244;49.088;11.886;2023-04-30T03:16:02;96100.03;;;13.52;50.06
27425;BME280;15244;49.088;11.886;2023-04-30T03:21:07;96102.00;;;13.48;49.87
27425;BME280;15244;49.088;11.886;2023-04-30T03:26:10;96101.22;;;13.40;49.99
27425;BME280;15244;49.088;11.886;2023-04-30T03:31:12;96102.41;;;13.32;49.99
27425;BME280;15244;49.088;11.886;2023-04-30T03:36:14;96103.91;;;13.26;50.09
27425;BME280;15244;49.088;11.886;2023-04-30T03:41:17;96103.53;;;13.17;50.28
27425;BME280;15244;49.088;11.886;2023-04-30T03:46:20;96094.53;;;13.16;50.31
27425;BME280;15244;49.088;11.886;2023-04-30T03:51:22;96096.50;;;13.19;50.37
27425;BME280;15244;49.088;11.886;2023-04-30T03:56:24;96085.16;;;13.25;50.45
27425;BME280;15244;49.088;11.886;2023-04-30T04:01:28;96092.22;;;13.29;50.36
27425;BME280;15244;49.088;11.886;2023-04-30T04:06:31;96087.88;;;13.21;50.37
27425;BME280;15244;49.088;11.886;2023-04-30T04:11:35;96094.16;;;13.07;50.57
27425;BME280;15244;49.088;11.886;2023-04-30T04:16:37;96100.00;;;12.95;50.50
27425;BME280;15244;49.088;11.886;2023-04-30T04:21:41;96104.31;;;12.89;50.87
27425;BME280;15244;49.088;11.886;2023-04-30T04:26:48;96113.69;;;12.84;50.76
27425;BME280;15244;49.088;11.886;2023-04-30T04:31:52;96116.38;;;12.73;51.11
27425;BME280;15244;49.088;11.886;2023-04-30T04:36:53;96115.56;;;12.66;51.31
27425;BME280;15244;49.088;11.886;2023-04-30T04:41:55;96123.00;;;12.62;51.34
27425;BME280;15244;49.088;11.886;2023-04-30T04:46:59;96124.94;;;12.57;51.52
27425;BME280;15244;49.088;11.886;2023-04-30T04:52:01;96132.00;;;12.58;51.81
27425;BME280;15244;49.088;11.886;2023-04-30T04:57:03;96136.66;;;12.58;51.71
27425;BME280;15244;49.088;11.886;2023-04-30T05:02:05;96137.44;;;12.55;52.03
27425;BME280;15244;49.088;11.886;2023-04-30T05:07:08;96137.47;;;12.58;51.99
27425;BME280;15244;49.088;11.886;2023-04-30T05:12:16;96132.78;;;12.66;52.11
27425;BME280;15244;49.088;11.886;2023-04-30T05:17:20;96135.16;;;12.71;52.22
27425;BME280;15244;49.088;11.886;2023-04-30T05:22:21;96142.19;;;12.76;52.30
27425;BME280;15244;49.088;11.886;2023-04-30T05:27:23;96137.50;;;12.76;52.25
27425;BME280;15244;49.088;11.886;2023-04-30T05:32:25;96144.53;;;12.81;51.96
27425;BME280;15244;49.088;11.886;2023-04-30T05:37:28;96152.38;;;12.83;52.33
27425;BME280;15244;49.088;11.886;2023-04-30T05:42:30;96154.69;;;12.80;52.19
27425;BME280;15244;49.088;11.886;2023-04-30T05:47:33;96157.44;;;12.80;52.14
27425;BME280;15244;49.088;11.886;2023-04-30T05:52:37;96159.00;;;12.78;52.47
27425;BME280;15244;49.088;11.886;2023-04-30T05:57:39;96172.28;;;12.83;52.53
27425;BME280;15244;49.088;11.886;2023-04-30T06:02:40;96162.16;;;12.87;52.31
27425;BME280;15244;49.088;11.886;2023-04-30T06:07:42;96163.34;;;12.97;52.44
27425;BME280;15244;49.088;11.886;2023-04-30T06:12:46;96159.44;;;13.09;52.64
27425;BME280;15244;49.088;11.886;2023-04-30T06:17:50;96164.16;;;13.22;52.28
27425;BME280;15244;49.088;11.886;2023-04-30T06:23:00;96158.69;;;13.26;52.47
27425;BME280;15244;49.088;11.886;2023-04-30T06:28:03;96161.06;;;13.31;52.29
27425;BME280;15244;49.088;11.886;2023-04-30T06:33:15;96156.38;;;13.42;52.23
27425;BME280;15244;49.088;11.886;2023-04-30T06:38:21;96156.00;;;13.48;52.18
27425;BME280;15244;49.088;11.886;2023-04-30T06:43:28;96155.59;;;13.60;52.17
27425;BME280;15244;49.088;11.886;2023-04-30T06:48:33;96156.34;;;13.78;52.10
27425;BME280;15244;49.088;11.886;2023-04-30T06:53:41;96159.06;;;13.96;51.92
27425;BME280;15244;49.088;11.886;2023-04-30T06:58:44;96159.44;;;14.09;51.42
27425;BME280;15244;49.088;11.886;2023-04-30T07:03:47;96153.88;;;14.27;51.90
27425;BME280;15244;49.088;11.886;2023-04-30T07:08:52;96158.91;;;14.43;51.31
27425;BME280;15244;49.088;11.886;2023-04-30T07:13:57;96147.53;;;14.55;50.92
27425;BME280;15244;49.088;11.886;2023-04-30T07:18:59;96156.88;;;14.68;50.77
27425;BME280;15244;49.088;11.886;2023-04-30T07:24:07;96150.94;;;14.84;50.71
27425;BME280;15244;49.088;11.886;2023-04-30T07:29:12;96149.28;;;14.98;50.44
27425;BME280;15244;49.088;11.886;2023-04-30T07:34:19;96155.06;;;15.10;50.14
27425;BME280;15244;49.088;11.886;2023-04-30T07:39:21;96158.16;;;15.16;49.66
27425;BME280;15244;49.088;11.886;2023-04-30T07:44:29;96152.25;;;15.25;49.52
27425;BME280;15244;49.088;11.886;2023-04-30T07:49:34;96148.22;;;15.36;49.32
27425;BME280;15244;49.088;11.886;2023-04-30T07:54:40;96156.34;;;15.51;49.09
27425;BME280;15244;49.088;11.886;2023-04-30T07:59:47;96153.88;;;15.64;49.12
27425;BME280;15244;49.088;11.886;2023-04-30T08:05:16;96155.78;;;15.77;48.65
27425;BME280;15244;49.088;11.886;2023-04-30T08:10:39;96167.50;;;15.85;48.18
27425;BME280;15244;49.088;11.886;2023-04-30T08:16:05;96165.06;;;15.91;47.95
27425;BME280;15244;49.088;11.886;2023-04-30T08:21:26;96162.28;;;15.94;47.26
27425;BME280;15244;49.088;11.886;2023-04-30T08:26:53;96161.44;;;15.97;46.56
27425;BME280;15244;49.088;11.886;2023-04-30T08:32:18;96155.09;;;16.04;46.51
27425;BME280;15244;49.088;11.886;2023-04-30T08:37:44;96159.75;;;16.11;46.80
27425;BME280;15244;49.088;11.886;2023-04-30T08:43:08;96159.28;;;16.19;46.75
27425;BME280;15244;49.088;11.886;2023-04-30T08:48:35;96153.69;;;16.27;46.34
27425;BME280;15244;49.088;11.886;2023-04-30T08:53:39;96153.63;;;16.34;46.25
27425;BME280;15244;49.088;11.886;2023-04-30T08:58:44;96160.66;;;16.38;45.71
27425;BME280;15244;49.088;11.886;2023-04-30T09:03:49;96167.25;;;16.44;45.72
27425;BME280;15244;49.088;11.886;2023-04-30T09:08:53;96158.53;;;16.50;45.67
27425;BME280;15244;49.088;11.886;2023-04-30T09:14:00;96160.06;;;16.54;45.66
27425;BME280;15244;49.088;11.886;2023-04-30T09:19:07;96160.84;;;16.55;45.18
27425;BME280;15244;49.088;11.886;2023-04-30T09:24:12;96160.75;;;16.62;45.13
27425;BME280;15244;49.088;11.886;2023-04-30T09:29:35;96167.81;;;16.63;45.01
27425;BME280;15244;49.088;11.886;2023-04-30T09:34:39;96168.22;;;16.61;45.11
27425;BME280;15244;49.088;11.886;2023-04-30T09:39:52;96159.09;;;16.68;44.80
27425;BME280;15244;49.088;11.886;2023-04-30T09:44:56;96165.69;;;16.78;44.97
27425;BME280;15244;49.088;11.886;2023-04-30T09:49:59;96171.09;;;16.85;44.84
27425;BME280;15244;49.088;11.886;2023-04-30T09:55:01;96161.53;;;16.93;45.10
27425;BME280;15244;49.088;11.886;2023-04-30T10:00:10;96163.44;;;17.00;44.35
27425;BME280;15244;49.088;11.886;2023-04-30T10:05:18;96164.88;;;17.08;44.26
27425;BME280;15244;49.088;11.886;2023-04-30T10:10:28;96157.69;;;17.14;44.17
27425;BME280;15244;49.088;11.886;2023-04-30T10:15:38;96154.06;;;17.21;43.97
27425;BME280;15244;49.088;11.886;2023-04-30T10:20:47;96164.16;;;17.31;43.92
27425;BME280;15244;49.088;11.886;2023-04-30T10:25:52;96158.53;;;17.38;43.91
27425;BME280;15244;49.088;11.886;2023-04-30T10:30:55;96148.47;;;17.51;44.25
27425;BME280;15244;49.088;11.886;2023-04-30T10:35:59;96146.22;;;17.70;44.41
27425;BME280;15244;49.088;11.886;2023-04-30T10:41:09;96119.91;;;17.89;44.15
27425;BME280;15244;49.088;11.886;2023-04-30T10:46:22;96120.06;;;18.02;43.23
27425;BME280;15244;49.088;11.886;2023-04-30T10:51:43;96115.97;;;18.10;42.79
27425;BME280;15244;49.088;11.886;2023-04-30T10:56:45;96114.69;;;18.14;42.18
27425;BME280;15244;49.088;11.886;2023-04-30T11:01:59;96116.28;;;18.15;41.81
27425;BME280;15244;49.088;11.886;2023-04-30T11:07:09;96110.03;;;18.11;41.46
27425;BME280;15244;49.088;11.886;2023-04-30T11:12:30;96105.56;;;18.17;41.80
27425;BME280;15244;49.088;11.886;2023-04-30T11:17:32;96103.59;;;18.38;41.77
27425;BME280;15244;49.088;11.886;2023-04-30T11:22:34;96102.38;;;18.59;41.37
27425;BME280;15244;49.088;11.886;2023-04-30T11:27:43;96103.22;;;18.76;41.02
27425;BME280;15244;49.088;11.886;2023-04-30T11:32:48;96093.50;;;18.88;40.96
27425;BME280;15244;49.088;11.886;2023-04-30T11:37:54;96090.41;;;19.02;40.54
27425;BME280;15244;49.088;11.886;2023-04-30T11:42:57;96090.16;;;19.13;40.20
27425;BME280;15244;49.088;11.886;2023-04-30T11:47:59;96090.06;;;19.16;39.37
27425;BME280;15244;49.088;11.886;2023-04-30T11:53:02;96082.56;;;19.17;39.09
27425;BME280;15244;49.088;11.886;2023-04-30T11:58:08;96075.06;;;19.17;39.23
27425;BME280;15244;49.088;11.886;2023-04-30T12:03:16;96086.38;;;19.23;39.27
27425;BME280;15244;49.088;11.886;2023-04-30T12:08:22;96074.69;;;19.32;39.38
27425;BME280;15244;49.088;11.886;2023-04-30T12:13:30;96076.75;;;19.44;39.65
27425;BME280;15244;49.088;11.886;2023-04-30T12:18:31;96075.81;;;19.51;39.05
27425;BME280;15244;49.088;11.886;2023-04-30T12:23:39;96076.94;;;19.53;37.98
27425;BME280;15244;49.088;11.886;2023-04-30T12:28:41;96071.75;;;19.55;38.24
27425;BME280;15244;49.088;11.886;2023-04-30T12:33:52;96072.53;;;19.56;38.10
27425;BME280;15244;49.088;11.886;2023-04-30T12:39:10;96062.94;;;19.60;37.73
27425;BME280;15244;49.088;11.886;2023-04-30T12:44:26;96064.41;;;19.65;37.69
27425;BME280;15244;49.088;11.886;2023-04-30T12:49:34;96063.91;;;19.70;37.33
27425;BME280;15244;49.088;11.886;2023-04-30T12:54:36;96057.72;;;19.79;37.71
27425;BME280;15244;49.088;11.886;2023-04-30T12:59:59;96047.34;;;19.83;37.11
27425;BME280;15244;49.088;11.886;2023-04-30T13:05:03;96044.59;;;19.83;36.70
27425;BME280;15244;49.088;11.886;2023-04-30T13:10:06;96032.88;;;19.91;37.18
27425;BME280;15244;49.088;11.886;2023-04-30T13:15:10;96025.38;;;20.05;37.11
27425;BME280;15244;49.088;11.886;2023-04-30T13:20:14;96025.34;;;20.21;37.60
27425;BME280;15244;49.088;11.886;2023-04-30T13:25:23;96007.31;;;20.42;37.17
27425;BME280;15244;49.088;11.886;2023-04-30T13:30:27;96020.22;;;20.62;37.12
27425;BME280;15244;49.088;11.886;2023-04-30T13:35:30;96018.56;;;20.64;35.86
27425;BME280;15244;49.088;11.886;2023-04-30T13:40:32;96016.97;;;20.63;35.97
27425;BME280;15244;49.088;11.886;2023-04-30T13:45:40;96015.31;;;20.66;35.33
27425;BME280;15244;49.088;11.886;2023-04-30T13:50:44;96007.13;;;20.75;34.95
27425;BME280;15244;49.088;11.886;2023-04-30T13:55:46;96004.91;;;20.83;34.93
27425;BME280;15244;49.088;11.886;2023-04-30T14:00:47;96000.16;;;20.83;34.82
27425;BME280;15244;49.088;11.886;2023-04-30T14:05:50;95999.03;;;20.81;34.28
27425;BME280;15244;49.088;11.886;2023-04-30T14:10:51;95994.59;;;20.83;34.90
27425;BME280;15244;49.088;11.886;2023-04-30T14:15:53;95998.94;;;20.84;34.52
27425;BME280;15244;49.088;11.886;2023-04-30T14:20:56;95981.22;;;20.82;34.01
27425;BME280;15244;49.088;11.886;2023-04-30T14:25:58;95976.66;;;20.88;34.38
27425;BME280;15244;49.088;11.886;2023-04-30T14:31:00;95974.97;;;21.03;34.40
27425;BME280;15244;49.088;11.886;2023-04-30T14:36:02;95969.28;;;21.19;34.35
27425;BME280;15244;49.088;11.886;2023-04-30T14:41:04;95973.34;;;21.40;34.02
27425;BME280;15244;49.088;11.886;2023-04-30T14:46:07;95953.97;;;21.62;33.94
27425;BME280;15244;49.088;11.886;2023-04-30T14:51:33;95954.66;;;21.76;34.03
27425;BME280;15244;49.088;11.886;2023-04-30T14:56:37;95949.31;;;21.81;33.39
27425;BME280;15244;49.088;11.886;2023-04-30T15:01:42;95945.25;;;21.95;33.40
27425;BME280;15244;49.088;11.886;2023-04-30T15:06:43;95931.91;;;22.12;33.40
27425;BME280;15244;49.088;11.886;2023-04-30T15:11:45;95943.88;;;22.22;32.99
27425;BME280;15244;49.088;11.886;2023-04-30T15:16:47;95931.66;;;22.19;33.03
27425;BME280;15244;49.088;11.886;2023-04-30T15:21:49;95931.31;;;22.17;32.02
27425;BME280;15244;49.088;11.886;2023-04-30T15:26:51;95928.09;;;22.19;32.41
27425;BME280;15244;49.088;11.886;2023-04-30T15:31:54;95924.44;;;22.22;31.84
27425;BME280;15244;49.088;11.886;2023-04-30T15:36:57;95930.94;;;22.28;31.84
27425;BME280;15244;49.088;11.886;2023-04-30T15:41:59;95942.84;;;22.28;31.35
27425;BME280;15244;49.088;11.886;2023-04-30T15:47:01;95934.88;;;22.18;30.79
27425;BME280;15244;49.088;11.886;2023-04-30T15:52:03;95933.16;;;22.11;31.30
27425;BME280;15244;49.088;11.886;2023-04-30T15:57:06;95921.44;;;22.16;32.15
27425;BME280;15244;49.088;11.886;2023-04-30T16:02:11;95911.38;;;22.32;32.19
27425;BME280;15244;49.088;11.886;2023-04-30T16:07:15;95918.50;;;22.42;32.03
27425;BME280;15244;49.088;11.886;2023-04-30T16:12:18;95913.88;;;22.39;31.58
27425;BME280;15244;49.088;11.886;2023-04-30T16:17:23;95910.09;;;22.23;30.82
27425;BME280;15244;49.088;11.886;2023-04-30T16:22:25;95923.56;;;22.03;30.46
27425;BME280;15244;49.088;11.886;2023-04-30T16:27:30;95919.44;;;21.85;30.48
27425;BME280;15244;49.088;11.886;2023-04-30T16:32:36;95911.63;;;21.71;30.76
27425;BME280;15244;49.088;11.886;2023-04-30T16:37:38;95904.06;;;21.72;31.71
27425;BME280;15244;49.088;11.886;2023-04-30T16:42:40;95898.13;;;21.82;31.66
27425;BME280;15244;49.088;11.886;2023-04-30T16:47:43;95895.41;;;21.92;31.53
27425;BME280;15244;49.088;11.886;2023-04-30T16:52:45;95896.16;;;21.92;31.79
27425;BME280;15244;49.088;11.886;2023-04-30T16:57:46;95897.72;;;21.93;31.05
27425;BME280;15244;49.088;11.886;2023-04-30T17:02:48;95906.06;;;21.93;31.04
27425;BME280;15244;49.088;11.886;2023-04-30T17:07:56;95899.16;;;21.98;31.00
27425;BME280;15244;49.088;11.886;2023-04-30T17:12:58;95901.13;;;21.97;30.76
27425;BME280;15244;49.088;11.886;2023-04-30T17:18:06;95908.84;;;21.93;30.66
27425;BME280;15244;49.088;11.886;2023-04-30T17:23:12;95913.22;;;21.81;30.60
27425;BME280;15244;49.088;11.886;2023-04-30T17:28:15;95900.84;;;21.73;30.78
27425;BME280;15244;49.088;11.886;2023-04-30T17:33:17;95901.25;;;21.62;30.57
27425;BME280;15244;49.088;11.886;2023-04-30T17:38:23;95896.22;;;21.48;30.55
27425;BME280;15244;49.088;11.886;2023-04-30T17:43:25;95901.00;;;21.35;30.62
27425;BME280;15244;49.088;11.886;2023-04-30T17:48:29;95892.53;;;21.16;30.78
27425;BME280;15244;49.088;11.886;2023-04-30T17:53:35;95885.28;;;20.97;30.77
27425;BME280;15244;49.088;11.886;2023-04-30T17:58:42;95899.28;;;20.81;31.04
27425;BME280;15244;49.088;11.886;2023-04-30T18:03:49;95899.22;;;20.59;31.19
27425;BME280;15244;49.088;11.886;2023-04-30T18:08:57;95902.09;;;20.42;31.10
27425;BME280;15244;49.088;11.886;2023-04-30T18:14:05;95902.63;;;20.24;31.41
27425;BME280;15244;49.088;11.886;2023-04-30T18:19:13;95901.19;;;20.07;31.19
27425;BME280;15244;49.088;11.886;2023-04-30T18:24:19;95897.50;;;19.84;31.45
27425;BME280;15244;49.088;11.886;2023-04-30T18:29:26;95897.22;;;19.66;31.52
27425;BME280;15244;49.088;11.886;2023-04-30T18:34:32;95898.06;;;19.50;31.65
27425;BME280;15244;49.088;11.886;2023-04-30T18:39:39;95902.53;;;19.31;31.66
27425;BME280;15244;49.088;11.886;2023-04-30T18:44:41;95895.84;;;19.16;31.99
27425;BME280;15244;49.088;11.886;2023-04-30T18:49:45;95901.31;;;19.03;31.91
27425;BME280;15244;49.088;11.886;2023-04-30T18:54:50;95897.72;;;18.90;31.87
27425;BME280;15244;49.088;11.886;2023-04-30T18:59:54;95899.94;;;18.78;32.25
27425;BME280;15244;49.088;11.886;2023-04-30T19:05:01;95902.59;;;18.66;32.38
27425;BME280;15244;49.088;11.886;2023-04-30T19:10:09;95910.38;;;18.54;32.46
27425;BME280;15244;49.088;11.886;2023-04-30T19:15:13;95918.56;;;18.41;32.76
27425;BME280;15244;49.088;11.886;2023-04-30T19:20:23;95921.91;;;18.33;32.97
27425;BME280;15244;49.088;11.886;2023-04-30T19:25:28;95917.41;;;18.23;33.07
27425;BME280;15244;49.088;11.886;2023-04-30T19:30:34;95910.97;;;18.13;33.22
27425;BME280;15244;49.088;11.886;2023-04-30T19:35:37;95918.69;;;18.02;33.52
27425;BME280;15244;49.088;11.886;2023-04-30T19:40:46;95916.22;;;17.87;33.73
27425;BME280;15244;49.088;11.886;2023-04-30T19:45:53;95918.41;;;17.76;33.75
27425;BME280;15244;49.088;11.886;2023-04-30T19:51:02;95919.06;;;17.64;34.00
27425;BME280;15244;49.088;11.886;2023-04-30T19:56:06;95917.28;;;17.53;34.32
27425;BME280;15244;49.088;11.886;2023-04-30T20:01:16;95922.56;;;17.44;34.06
27425;BME280;15244;49.088;11.886;2023-04-30T20:06:22;95925.63;;;17.30;34.32
27425;BME280;15244;49.088;11.886;2023-04-30T20:11:25;95926.13;;;17.25;34.12
27425;BME280;15244;49.088;11.886;2023-04-30T20:16:29;95930.53;;;17.19;34.09
27425;BME280;15244;49.088;11.886;2023-04-30T20:21:36;95944.81;;;17.14;34.47
27425;BME280;15244;49.088;11.886;2023-04-30T20:26:38;95934.72;;;17.07;34.24
27425;BME280;15244;49.088;11.886;2023-04-30T20:31:46;95937.56;;;17.00;34.48
27425;BME280;15244;49.088;11.886;2023-04-30T20:36:48;95927.47;;;16.93;34.59
27425;BME280;15244;49.088;11.886;2023-04-30T20:41:51;95930.31;;;16.86;34.66
27425;BME280;15244;49.088;11.886;2023-04-30T20:46:55;95924.97;;;16.79;34.91
27425;BME280;15244;49.088;11.886;2023-04-30T20:51:58;95917.63;;;16.68;34.85
27425;BME280;15244;49.088;11.886;2023-04-30T20:57:02;95919.34;;;16.59;34.89
27425;BME280;15244;49.088;11.886;2023-04-30T21:02:10;95928.56;;;16.49;35.10
27425;BME280;15244;49.088;11.886;2023-04-30T21:07:13;95936.94;;;16.41;35.09
27425;BME280;15244;49.088;11.886;2023-04-30T21:12:17;95928.00;;;16.34;35.32
27425;BME280;15244;49.088;11.886;2023-04-30T21:17:23;95929.72;;;16.24;35.47
27425;BME280;15244;49.088;11.886;2023-04-30T21:22:25;95932.56;;;16.17;35.60
27425;BME280;15244;49.088;11.886;2023-04-30T21:27:26;95934.22;;;16.11;35.57
27425;BME280;15244;49.088;11.886;2023-04-30T21:32:28;95928.06;;;16.03;35.59
27425;BME280;15244;49.088;11.886;2023-04-30T21:37:30;95928.91;;;15.96;35.97
27425;BME280;15244;49.088;11.886;2023-04-30T21:42:32;95927.47;;;15.88;36.03
27425;BME280;15244;49.088;11.886;2023-04-30T21:47:34;95930.31;;;15.81;35.77
27425;BME280;15244;49.088;11.886;2023-04-30T21:52:41;95926.88;;;15.73;36.17
27425;BME280;15244;49.088;11.886;2023-04-30T21:57:43;95918.69;;;15.66;36.03
27425;BME280;15244;49.088;11.886;2023-04-30T22:02:50;95918.38;;;15.57;36.41
27425;BME280;15244;49.088;11.886;2023-04-30T22:07:54;95916.53;;;15.50;36.50
27425;BME280;15244;49.088;11.886;2023-04-30T22:12:59;95916.59;;;15.43;36.67
27425;BME280;15244;49.088;11.886;2023-04-30T22:18:00;95916.69;;;15.36;36.67
27425;BME280;15244;49.088;11.886;2023-04-30T22:23:04;95910.13;;;15.26;36.85
27425;BME280;15244;49.088;11.886;2023-04-30T22:28:06;95908.63;;;15.18;36.96
27425;BME280;15244;49.088;11.886;2023-04-30T22:33:12;95913.81;;;15.12;37.02
27425;BME280;15244;49.088;11.886;2023-04-30T22:38:14;95898.16;;;15.06;37.07
27425;BME280;15244;49.088;11.886;2023-04-30T22:43:21;95897.44;;;15.02;37.18
27425;BME280;15244;49.088;11.886;2023-04-30T22:48:25;95893.94;;;14.98;37.25
27425;BME280;15244;49.088;11.886;2023-04-30T22:53:28;95884.19;;;14.93;37.35
27425;BME280;15244;49.088;11.886;2023-04-30T22:58:31;95888.94;;;14.89;37.37
27425;BME280;15244;49.088;11.886;2023-04-30T23:03:33;95888.19;;;14.85;37.78
27425;BME280;15244;49.088;11.886;2023-04-30T23:08:36;95886.28;;;14.82;37.35
27425;BME280;15244;49.088;11.886;2023-04-30T23:13:39;95886.72;;;14.77;37.50
27425;BME280;15244;49.088;11.886;2023-04-30T23:18:41;95876.94;;;14.72;37.62
27425;BME280;15244;49.088;11.886;2023-04-30T23:23:43;95878.53;;;14.69;37.94
27425;BME280;15244;49.088;11.886;2023-04-30T23:28:44;95883.28;;;14.65;37.84
27425;BME280;15244;49.088;11.886;2023-04-30T23:33:53;95873.50;;;14.61;37.80
27425;BME280;15244;49.088;11.886;2023-04-30T23:38:55;95879.03;;;14.57;37.91
27425;BME280;15244;49.088;11.886;2023-04-30T23:43:57;95868.47;;;14.52;37.97
27425;BME280;15244;49.088;11.886;2023-04-30T23:48:59;95862.66;;;14.46;38.13
27425;BME280;15244;49.088;11.886;2023-04-30T23:54:02;95865.84;;;14.41;38.16
27425;BME280;15244;49.088;11.886;2023-04-30T23:59:06;95858.03;;;14.36;38.36
